createdAt,value
2023-03-02T00:01:03.687Z,57.13
2023-03-02T00:03:07.405Z,57.50
2023-03-02T00:05:14.833Z,57.47
2023-03-02T00:07:22.262Z,57.35
2023-03-02T00:09:25.248Z,57.08
2023-03-02T00:11:28.161Z,57.87
2023-03-02T00:13:31.844Z,57.57
2023-03-02T00:15:34.448Z,58.13
2023-03-02T00:17:37.243Z,57.84
2023-03-02T00:19:39.985Z,57.86
2023-03-02T00:21:42.666Z,57.84
2023-03-02T00:23:46.942Z,58.01
2023-03-02T00:25:49.518Z,57.65
2023-03-02T00:27:52.130Z,58.04
2023-03-02T00:29:54.718Z,58.29
2023-03-02T00:31:57.314Z,58.27
2023-03-02T00:34:00.020Z,58.15
2023-03-02T00:36:02.906Z,58.05
2023-03-02T00:38:05.600Z,57.89
2023-03-02T00:40:11.025Z,58.04
2023-03-02T00:42:13.639Z,57.94
2023-03-02T00:44:17.621Z,57.88
2023-03-02T00:46:23.204Z,58.22
2023-03-02T00:48:25.783Z,58.25
2023-03-02T00:50:28.413Z,58.15
2023-03-02T00:52:31.308Z,57.62
2023-03-02T00:54:33.877Z,57.89
2023-03-02T00:56:37.814Z,58.36
2023-03-02T00:58:40.471Z,58.31
2023-03-02T01:00:43.553Z,58.69
2023-03-02T01:02:46.238Z,58.44
2023-03-02T01:04:49.145Z,58.58
2023-03-02T01:06:51.745Z,58.50
2023-03-02T01:08:54.292Z,59.19
2023-03-02T01:10:56.926Z,59.23
2023-03-02T01:13:01.001Z,59.50
2023-03-02T01:15:04.855Z,58.87
2023-03-02T01:17:08.752Z,59.52
2023-03-02T01:19:11.904Z,59.06
2023-03-02T01:21:16.771Z,59.24
2023-03-02T01:23:19.329Z,59.36
2023-03-02T01:25:21.944Z,59.23
2023-03-02T01:27:24.524Z,59.59
2023-03-02T01:29:28.729Z,59.52
2023-03-02T01:31:32.208Z,59.52
2023-03-02T01:33:34.969Z,59.51
2023-03-02T01:35:37.560Z,60.20
2023-03-02T01:37:40.215Z,59.68
2023-03-02T01:39:42.788Z,59.68
2023-03-02T01:41:46.227Z,59.61
2023-03-02T01:43:48.872Z,60.02
2023-03-02T01:45:55.224Z,60.07
2023-03-02T01:47:57.900Z,59.83
2023-03-02T01:50:04.885Z,59.82
2023-03-02T01:52:12.174Z,59.82
2023-03-02T01:54:23.207Z,59.99
2023-03-02T01:56:30.538Z,60.59
2023-03-02T01:58:36.950Z,60.41
2023-03-02T02:00:41.080Z,60.10
2023-03-02T02:02:45.206Z,60.64
2023-03-02T02:04:49.670Z,60.25
2023-03-02T02:06:56.459Z,60.66
2023-03-02T02:08:59.632Z,60.52
2023-03-02T02:11:02.315Z,60.76
2023-03-02T02:13:04.939Z,60.70
2023-03-02T02:15:10.153Z,60.22
2023-03-02T02:17:13.861Z,60.66
2023-03-02T02:19:35.251Z,61.01
2023-03-02T02:21:37.829Z,60.45
2023-03-02T02:23:46.318Z,60.34
2023-03-02T02:26:03.677Z,60.44
2023-03-02T02:28:14.204Z,60.74
2023-03-02T02:30:17.862Z,60.51
2023-03-02T02:32:26.401Z,60.67
2023-03-02T02:34:33.226Z,60.94
2023-03-02T02:36:41.006Z,60.36
2023-03-02T02:38:47.905Z,60.47
2023-03-02T02:40:54.574Z,60.94
2023-03-02T02:42:58.533Z,60.70
2023-03-02T02:45:05.120Z,61.00
2023-03-02T02:47:18.197Z,60.83
2023-03-02T02:49:33.336Z,60.87
2023-03-02T02:51:36.219Z,61.29
2023-03-02T02:53:44.142Z,60.64
2023-03-02T02:55:48.298Z,60.93
2023-03-02T02:57:52.698Z,61.07
2023-03-02T02:59:59.768Z,60.75
2023-03-02T03:02:02.505Z,61.36
2023-03-02T03:04:07.190Z,60.73
2023-03-02T03:06:17.613Z,61.21
2023-03-02T03:08:55.849Z,61.19
2023-03-02T03:10:59.706Z,60.98
2023-03-02T03:13:03.070Z,60.95
2023-03-02T03:15:08.792Z,61.29
2023-03-02T03:17:13.762Z,61.01
2023-03-02T03:19:20.812Z,60.75
2023-03-02T03:21:23.403Z,60.76
2023-03-02T03:23:26.020Z,61.25
2023-03-02T03:25:28.647Z,60.98
2023-03-02T03:27:31.282Z,61.40
2023-03-02T03:29:35.159Z,61.25
2023-03-02T03:31:39.335Z,61.35
2023-03-02T03:33:41.903Z,61.24
2023-03-02T03:35:44.529Z,60.90
2023-03-02T03:37:48.467Z,61.11
2023-03-02T03:39:51.274Z,60.92
2023-03-02T03:41:53.809Z,60.88
2023-03-02T03:43:56.673Z,61.66
2023-03-02T03:45:59.323Z,61.56
2023-03-02T03:48:03.282Z,61.23
2023-03-02T03:50:09.410Z,61.14
2023-03-02T03:52:13.841Z,61.20
2023-03-02T03:54:16.463Z,61.50
2023-03-02T03:56:19.050Z,61.11
2023-03-02T03:58:21.742Z,61.65
2023-03-02T04:00:24.881Z,61.67
2023-03-02T04:02:27.603Z,61.88
2023-03-02T04:04:35.705Z,61.52
2023-03-02T04:06:38.305Z,61.56
2023-03-02T04:08:40.892Z,61.77
2023-03-02T04:10:43.482Z,61.40
2023-03-02T04:12:46.276Z,61.51
2023-03-02T04:14:48.913Z,61.71
2023-03-02T04:16:52.196Z,62.05
2023-03-02T04:18:55.202Z,62.32
2023-03-02T04:20:59.146Z,62.08
2023-03-02T04:23:01.729Z,61.87
2023-03-02T04:25:05.108Z,61.99
2023-03-02T04:27:07.680Z,61.98
2023-03-02T04:29:10.721Z,62.05
2023-03-02T04:31:13.328Z,61.83
2023-03-02T04:33:15.923Z,62.12
2023-03-02T04:35:19.033Z,61.75
2023-03-02T04:37:22.944Z,61.94
2023-03-02T04:39:25.784Z,62.62
2023-03-02T04:41:28.432Z,62.04
2023-03-02T04:43:32.193Z,62.13
2023-03-02T04:45:35.161Z,62.26
2023-03-02T04:47:37.701Z,62.34
2023-03-02T04:49:40.376Z,61.82
2023-03-02T04:51:45.719Z,62.59
2023-03-02T04:53:49.617Z,62.54
2023-03-02T04:55:52.170Z,62.57
2023-03-02T04:57:54.781Z,61.84
2023-03-02T04:59:57.371Z,62.04
2023-03-02T05:02:01.537Z,62.16
2023-03-02T05:04:04.552Z,62.16
2023-03-02T05:06:07.996Z,62.55
2023-03-02T05:08:10.540Z,62.86
2023-03-02T05:10:15.917Z,62.53
2023-03-02T05:12:19.199Z,62.50
2023-03-02T05:14:22.561Z,62.40
2023-03-02T05:16:26.347Z,62.50
2023-03-02T05:18:29.094Z,62.59
2023-03-02T05:20:31.873Z,62.20
2023-03-02T05:22:34.455Z,62.45
2023-03-02T05:24:37.383Z,62.22
2023-03-02T05:26:41.702Z,62.71
2023-03-02T05:28:44.962Z,62.67
2023-03-02T05:30:48.269Z,62.34
2023-03-02T05:32:51.367Z,62.85
2023-03-02T05:34:53.949Z,62.56
2023-03-02T05:36:58.131Z,62.65
2023-03-02T05:39:00.802Z,63.02
2023-03-02T05:41:03.517Z,62.73
2023-03-02T05:43:07.931Z,62.49
2023-03-02T05:45:18.010Z,62.58
2023-03-02T05:47:20.581Z,62.46
2023-03-02T05:49:23.127Z,62.80
2023-03-02T05:51:25.722Z,62.83
2023-03-02T05:53:28.441Z,62.58
2023-03-02T05:55:31.584Z,62.94
2023-03-02T05:57:34.574Z,63.04
2023-03-02T05:59:38.530Z,63.04
2023-03-02T06:01:41.263Z,62.78
2023-03-02T06:03:44.208Z,62.53
2023-03-02T06:05:52.351Z,63.07
2023-03-02T06:07:57.196Z,62.54
2023-03-02T06:09:59.812Z,62.72
2023-03-02T06:12:02.376Z,62.92
2023-03-02T06:14:04.967Z,62.86
2023-03-02T06:16:09.709Z,63.13
2023-03-02T06:18:12.676Z,63.14
2023-03-02T06:20:18.542Z,62.94
2023-03-02T06:22:21.154Z,63.14
2023-03-02T06:24:23.786Z,62.69
2023-03-02T06:26:26.348Z,62.58
2023-03-02T06:28:28.914Z,62.61
2023-03-02T06:30:31.471Z,63.15
2023-03-02T06:32:35.603Z,62.92
2023-03-02T06:34:38.185Z,62.87
2023-03-02T06:36:40.888Z,62.83
2023-03-02T06:38:43.513Z,62.99
2023-03-02T06:40:46.151Z,63.45
2023-03-02T06:42:48.737Z,62.79
2023-03-02T06:44:51.718Z,63.23
2023-03-02T06:46:54.258Z,63.22
2023-03-02T06:48:58.178Z,62.97
2023-03-02T06:51:00.869Z,62.87
2023-03-02T06:53:03.699Z,63.93
2023-03-02T06:55:07.442Z,63.70
2023-03-02T06:57:10.002Z,63.69
2023-03-02T06:59:15.143Z,63.72
2023-03-02T07:01:17.889Z,63.78
2023-03-02T07:03:20.557Z,63.98
2023-03-02T07:05:24.978Z,63.33
2023-03-02T07:07:27.634Z,63.96
2023-03-02T07:09:33.709Z,63.77
2023-03-02T07:11:36.253Z,63.33
2023-03-02T07:13:39.419Z,63.89
2023-03-02T07:15:42.012Z,63.60
2023-03-02T07:17:46.019Z,63.53
2023-03-02T07:19:48.589Z,63.57
2023-03-02T07:21:52.456Z,63.67
2023-03-02T07:23:55.066Z,63.53
2023-03-02T07:25:57.878Z,63.43
2023-03-02T07:28:00.469Z,63.48
2023-03-02T07:30:03.196Z,63.36
2023-03-02T07:32:06.916Z,63.98
2023-03-02T07:34:09.537Z,63.71
2023-03-02T07:36:12.141Z,64.38
2023-03-02T07:38:16.139Z,63.83
2023-03-02T07:40:19.076Z,64.12
2023-03-02T07:42:21.610Z,63.46
2023-03-02T07:44:24.218Z,63.70
2023-03-02T07:46:26.836Z,63.85
2023-03-02T07:48:29.522Z,63.63
2023-03-02T07:50:32.665Z,63.61
2023-03-02T07:52:35.475Z,63.92
2023-03-02T07:54:39.430Z,63.85
2023-03-02T07:56:42.346Z,64.28
2023-03-02T07:58:45.400Z,64.20
2023-03-02T08:00:48.233Z,63.87
2023-03-02T08:02:50.947Z,64.06
2023-03-02T08:04:53.645Z,63.26
2023-03-02T08:06:56.248Z,63.82
2023-03-02T08:09:00.888Z,63.76
2023-03-02T08:11:09.712Z,63.46
2023-03-02T08:13:12.271Z,64.19
2023-03-02T08:15:15.510Z,63.95
2023-03-02T08:17:18.074Z,63.82
2023-03-02T08:19:21.086Z,63.27
2023-03-02T08:21:26.289Z,63.46
2023-03-02T08:23:29.088Z,63.13
2023-03-02T08:25:31.668Z,62.75
2023-03-02T08:27:35.556Z,63.41
2023-03-02T08:29:38.170Z,62.79
2023-03-02T08:31:40.847Z,63.29
2023-03-02T08:33:43.571Z,63.24
2023-03-02T08:35:46.179Z,63.02
2023-03-02T08:37:48.836Z,62.97
2023-03-02T08:39:51.775Z,63.21
2023-03-02T08:41:55.060Z,63.64
2023-03-02T08:43:58.989Z,62.77
2023-03-02T08:46:02.004Z,62.86
2023-03-02T08:48:04.953Z,63.13
2023-03-02T08:50:08.434Z,63.21
2023-03-02T08:52:11.016Z,63.04
2023-03-02T08:54:14.184Z,63.38
2023-03-02T08:56:18.756Z,62.84
2023-03-02T08:58:21.531Z,63.00
2023-03-02T09:00:25.681Z,63.10
2023-03-02T09:02:28.234Z,63.32
2023-03-02T09:04:30.876Z,62.69
2023-03-02T09:06:35.812Z,62.79
2023-03-02T09:08:38.486Z,62.54
2023-03-02T09:10:41.113Z,61.86
2023-03-02T09:12:43.673Z,61.97
2023-03-02T09:14:46.231Z,62.66
2023-03-02T09:16:50.222Z,62.57
2023-03-02T09:18:53.264Z,62.75
2023-03-02T09:20:56.882Z,62.56
2023-03-02T09:22:59.490Z,62.88
2023-03-02T09:25:02.124Z,62.75
2023-03-02T09:27:04.863Z,62.38
2023-03-02T09:29:08.137Z,62.59
2023-03-02T09:31:10.938Z,62.51
2023-03-02T09:33:14.837Z,62.35
2023-03-02T09:35:17.449Z,62.72
2023-03-02T09:37:19.989Z,62.48
2023-03-02T09:39:22.529Z,62.36
2023-03-02T09:42:11.299Z,62.21
2023-03-02T09:44:38.613Z,62.32
2023-03-02T09:46:47.689Z,61.75
2023-03-02T09:49:05.961Z,61.75
2023-03-02T09:51:32.351Z,61.86
2023-03-02T09:53:45.156Z,61.87
2023-03-02T09:55:53.484Z,61.71
2023-03-02T09:57:56.774Z,61.44
2023-03-02T10:00:12.925Z,61.44
2023-03-02T10:02:26.625Z,61.78
2023-03-02T10:04:34.462Z,61.54
2023-03-02T10:06:37.064Z,61.89
2023-03-02T10:08:42.814Z,61.53
2023-03-02T10:10:47.457Z,61.70
2023-03-02T10:13:01.095Z,61.76
2023-03-02T10:15:09.495Z,62.03
2023-03-02T10:17:29.550Z,61.98
2023-03-02T10:19:42.522Z,62.11
2023-03-02T10:21:48.295Z,61.99
2023-03-02T10:23:57.616Z,62.19
2023-03-02T10:26:07.878Z,62.23
2023-03-02T10:28:18.258Z,61.98
2023-03-02T10:30:27.798Z,61.72
2023-03-02T10:32:33.797Z,61.58
2023-03-02T10:34:39.623Z,61.53
2023-03-02T10:36:44.878Z,62.00
2023-03-02T10:38:48.105Z,60.77
2023-03-02T10:40:53.222Z,60.65
2023-03-02T10:42:57.496Z,60.89
2023-03-02T10:45:08.630Z,60.81
2023-03-02T10:47:21.030Z,61.01
2023-03-02T10:49:31.918Z,61.24
2023-03-02T10:51:36.272Z,61.07
2023-03-02T10:53:38.830Z,61.32
2023-03-02T10:55:46.362Z,60.72
2023-03-02T10:58:03.472Z,61.42
2023-03-02T11:00:16.277Z,61.52
2023-03-02T11:02:23.441Z,61.09
2023-03-02T11:04:27.256Z,61.21
2023-03-02T11:06:31.384Z,61.19
2023-03-02T11:08:35.559Z,61.25
2023-03-02T11:10:40.106Z,61.14
2023-03-02T11:12:47.554Z,60.97
2023-03-02T11:14:50.115Z,60.67
2023-03-02T11:16:53.688Z,60.06
2023-03-02T11:18:59.815Z,59.82
2023-03-02T11:21:05.610Z,60.42
2023-03-02T11:23:23.451Z,60.89
2023-03-02T11:25:32.863Z,60.92
2023-03-02T11:27:40.146Z,61.07
2023-03-02T11:29:46.555Z,60.60
2023-03-02T11:31:52.028Z,60.79
2023-03-02T11:34:36.344Z,59.54
2023-03-02T11:36:46.366Z,60.14
2023-03-02T11:38:53.735Z,60.50
2023-03-02T11:41:01.423Z,60.66
2023-03-02T11:43:05.558Z,59.93
2023-03-02T11:45:20.020Z,60.12
2023-03-02T11:47:24.024Z,60.38
2023-03-02T11:49:36.532Z,60.20
2023-03-02T11:51:53.255Z,60.62
2023-03-02T11:54:03.686Z,60.42
2023-03-02T11:56:09.009Z,59.91
2023-03-02T11:58:18.009Z,59.98
2023-03-02T12:00:31.510Z,60.21
2023-03-02T12:02:34.092Z,60.46
2023-03-02T12:04:39.061Z,59.71
2023-03-02T12:06:44.062Z,59.92
2023-03-02T12:08:47.592Z,60.06
2023-03-02T12:10:58.369Z,60.02
2023-03-02T12:13:13.840Z,60.02
2023-03-02T12:15:29.565Z,60.22
2023-03-02T12:17:35.144Z,60.32
2023-03-02T12:19:43.652Z,59.88
2023-03-02T12:21:58.480Z,58.58
2023-03-02T12:24:03.890Z,58.61
2023-03-02T12:26:10.449Z,58.70
2023-03-02T12:28:30.169Z,57.84
2023-03-02T12:30:32.836Z,58.34
2023-03-02T12:32:35.466Z,57.66
2023-03-02T12:34:40.214Z,57.31
2023-03-02T12:36:45.008Z,57.51
2023-03-02T12:38:58.988Z,57.32
2023-03-02T12:41:17.530Z,56.60
2023-03-02T12:43:33.147Z,56.74
2023-03-02T12:45:50.551Z,57.18
2023-03-02T12:48:02.755Z,57.32
2023-03-02T12:50:17.081Z,56.99
2023-03-02T12:52:24.231Z,57.20
2023-03-02T12:54:28.603Z,57.13
2023-03-02T12:56:31.233Z,57.12
2023-03-02T12:58:35.494Z,57.35
2023-03-02T13:00:38.101Z,57.76
2023-03-02T13:02:48.162Z,57.96
2023-03-02T13:04:55.323Z,57.75
2023-03-02T13:06:57.993Z,57.27
2023-03-02T13:09:00.977Z,57.39
2023-03-02T13:11:04.653Z,57.67
2023-03-02T13:13:17.389Z,56.88
2023-03-02T13:15:21.521Z,56.80
2023-03-02T13:17:26.900Z,56.06
2023-03-02T13:19:30.648Z,56.44
2023-03-02T13:21:35.665Z,56.09
2023-03-02T13:23:46.114Z,56.55
2023-03-02T13:25:50.651Z,56.47
2023-03-02T13:27:55.840Z,55.92
2023-03-02T13:30:10.183Z,56.25
2023-03-02T13:32:22.702Z,56.35
2023-03-02T13:34:27.755Z,56.63
2023-03-02T13:36:35.386Z,55.63
2023-03-02T13:38:39.288Z,56.03
2023-03-02T13:40:44.743Z,55.41
2023-03-02T13:42:48.335Z,55.20
2023-03-02T13:44:50.934Z,54.79
2023-03-02T13:46:53.485Z,54.34
2023-03-02T13:49:13.966Z,53.73
2023-03-02T13:51:18.403Z,54.48
2023-03-02T13:53:21.523Z,53.67
2023-03-02T13:55:25.140Z,53.37
2023-03-02T13:57:32.216Z,53.99
2023-03-02T13:59:36.434Z,54.50
2023-03-02T14:01:41.335Z,54.81
2023-03-02T14:03:43.949Z,54.82
2023-03-02T14:05:47.876Z,54.47
2023-03-02T14:07:50.804Z,54.43
2023-03-02T14:09:53.394Z,54.26
2023-03-02T14:11:57.001Z,53.58
2023-03-02T14:13:59.637Z,53.36
2023-03-02T14:16:02.272Z,53.53
2023-03-02T14:18:10.516Z,52.12
2023-03-02T14:20:15.745Z,51.38
2023-03-02T14:22:20.416Z,51.67
2023-03-02T14:24:22.983Z,51.89
2023-03-02T14:26:33.415Z,51.65
2023-03-02T14:28:36.325Z,49.41
2023-03-02T14:30:38.971Z,49.29
2023-03-02T14:32:41.621Z,49.53
2023-03-02T14:34:44.442Z,48.96
2023-03-02T14:36:50.094Z,49.27
2023-03-02T14:38:54.368Z,48.94
2023-03-02T14:40:57.665Z,49.60
2023-03-02T14:43:00.298Z,49.59
2023-03-02T14:45:02.875Z,49.40
2023-03-02T14:47:05.533Z,49.62
2023-03-02T14:49:08.112Z,48.92
2023-03-02T14:51:20.735Z,48.96
2023-03-02T14:53:29.069Z,48.51
2023-03-02T14:55:33.938Z,48.63
2023-03-02T14:57:38.494Z,48.91
2023-03-02T14:59:41.162Z,48.93
2023-03-02T15:01:44.581Z,48.57
2023-03-02T15:03:47.567Z,48.83
2023-03-02T15:06:00.792Z,49.02
2023-03-02T15:08:04.276Z,48.57
2023-03-02T15:10:08.219Z,48.30
2023-03-02T15:12:12.475Z,48.26
2023-03-02T15:14:15.073Z,48.99
2023-03-02T15:16:17.787Z,48.98
2023-03-02T15:18:20.402Z,48.63
2023-03-02T15:20:23.046Z,48.98
2023-03-02T15:22:25.614Z,48.37
2023-03-02T15:24:28.216Z,48.22
2023-03-02T15:26:30.793Z,48.72
2023-03-02T15:28:34.744Z,49.46
2023-03-02T15:30:37.305Z,49.22
2023-03-02T15:32:39.990Z,49.69
2023-03-02T15:34:42.916Z,49.74
2023-03-02T15:36:45.501Z,48.99
2023-03-02T15:38:50.511Z,49.52
2023-03-02T15:40:53.399Z,49.45
2023-03-02T15:42:56.084Z,50.12
2023-03-02T15:45:00.154Z,50.58
2023-03-02T15:47:03.370Z,50.40
2023-03-02T15:49:06.036Z,51.17
2023-03-02T15:51:09.726Z,50.97
2023-03-02T15:53:12.280Z,50.86
2023-03-02T15:55:15.545Z,50.87
2023-03-02T15:57:18.627Z,50.57
2023-03-02T15:59:21.849Z,51.00
2023-03-02T16:01:25.791Z,50.87
2023-03-02T16:03:28.498Z,51.42
2023-03-02T16:05:33.226Z,51.71
2023-03-02T16:07:37.187Z,50.90
2023-03-02T16:09:39.830Z,51.33
2023-03-02T16:11:42.438Z,51.62
2023-03-02T16:13:45.002Z,51.85
2023-03-02T16:15:47.589Z,52.50
2023-03-02T16:17:51.453Z,52.65
2023-03-02T16:19:54.005Z,53.06
2023-03-02T16:21:56.583Z,53.07
2023-03-02T16:24:03.790Z,53.27
2023-03-02T16:26:10.295Z,53.42
2023-03-02T16:28:13.129Z,53.94
2023-03-02T16:30:16.481Z,54.08
2023-03-02T16:32:21.964Z,54.02
2023-03-02T16:34:25.931Z,53.81
2023-03-02T16:36:28.532Z,53.97
2023-03-02T16:38:31.144Z,53.81
2023-03-02T16:40:34.296Z,54.11
2023-03-02T16:42:36.942Z,54.22
2023-03-02T16:44:39.792Z,54.27
2023-03-02T16:46:43.369Z,54.59
2023-03-02T16:48:47.151Z,54.87
2023-03-02T16:50:57.715Z,54.62
2023-03-02T16:53:00.687Z,54.56
2023-03-02T16:55:03.707Z,54.73
2023-03-02T16:57:06.317Z,55.09
2023-03-02T16:59:08.864Z,55.46
2023-03-02T17:01:13.449Z,55.67
2023-03-02T17:03:16.295Z,56.08
2023-03-02T17:05:21.404Z,55.94
2023-03-02T17:07:25.369Z,55.94
2023-03-02T17:09:28.264Z,56.24
2023-03-02T17:11:31.819Z,56.50
2023-03-02T17:13:34.521Z,56.18
2023-03-02T17:15:37.127Z,56.36
2023-03-02T17:17:39.852Z,56.50
2023-03-02T17:19:42.402Z,56.93
2023-03-02T17:21:44.965Z,57.00
2023-03-02T17:23:49.302Z,56.43
2023-03-02T17:25:51.947Z,56.96
2023-03-02T17:27:54.554Z,56.80
2023-03-02T17:29:57.106Z,56.78
2023-03-02T17:31:59.786Z,57.14
2023-03-02T17:34:04.649Z,57.28
2023-03-02T17:36:09.681Z,57.28
2023-03-02T17:38:12.253Z,57.76
2023-03-02T17:40:17.478Z,57.69
2023-03-02T17:42:20.466Z,57.90
2023-03-02T17:44:23.128Z,57.98
2023-03-02T17:46:27.603Z,58.24
2023-03-02T17:48:30.276Z,58.29
2023-03-02T17:50:32.896Z,58.16
2023-03-02T17:52:35.451Z,58.27
2023-03-02T17:54:38.007Z,58.62
2023-03-02T17:56:42.461Z,58.46
2023-03-02T17:58:45.576Z,58.42
2023-03-02T18:00:48.181Z,58.65
2023-03-02T18:02:51.562Z,58.65
2023-03-02T18:04:54.172Z,58.49
2023-03-02T18:06:56.804Z,58.70
2023-03-02T18:08:59.370Z,58.83
2023-03-02T18:11:01.966Z,58.80
2023-03-02T18:13:05.933Z,59.18
2023-03-02T18:15:09.402Z,58.69
2023-03-02T18:17:12.452Z,58.98
2023-03-02T18:19:15.027Z,58.98
2023-03-02T18:21:17.917Z,59.25
2023-03-02T18:23:21.425Z,58.98
2023-03-02T18:25:24.294Z,59.20
2023-03-02T18:27:27.029Z,59.59
2023-03-02T18:29:30.968Z,59.71
2023-03-02T18:31:34.441Z,59.32
2023-03-02T18:33:37.067Z,59.71
2023-03-02T18:35:39.983Z,59.75
2023-03-02T18:37:43.059Z,59.96
2023-03-02T18:39:45.786Z,59.86
2023-03-02T18:41:48.477Z,59.95
2023-03-02T18:43:51.893Z,59.80
2023-03-02T18:45:56.872Z,59.97
2023-03-02T18:48:00.982Z,59.88
2023-03-02T18:50:05.362Z,59.60
2023-03-02T18:52:09.775Z,60.07
2023-03-02T18:54:12.628Z,59.89
2023-03-02T18:56:15.659Z,60.48
2023-03-02T18:58:20.733Z,60.31
2023-03-02T19:00:28.225Z,60.24
2023-03-02T19:02:32.255Z,60.30
2023-03-02T19:04:35.256Z,60.35
2023-03-02T19:06:37.856Z,60.04
2023-03-02T19:08:40.916Z,60.19
2023-03-02T19:10:43.496Z,60.08
2023-03-02T19:12:46.321Z,59.91
2023-03-02T19:14:48.931Z,59.69
2023-03-02T19:16:51.818Z,60.16
2023-03-02T19:18:55.872Z,60.43
2023-03-02T19:20:58.612Z,60.48
2023-03-02T19:23:01.696Z,60.44
2023-03-02T19:25:04.694Z,60.34
2023-03-02T19:27:07.337Z,60.79
2023-03-02T19:29:09.926Z,60.36
2023-03-02T19:31:13.789Z,60.14
2023-03-02T19:33:16.585Z,60.40
2023-03-02T19:35:21.873Z,60.67
2023-03-02T19:37:24.478Z,60.90
2023-03-02T19:39:27.228Z,60.58
2023-03-02T19:41:29.894Z,60.81
2023-03-02T19:43:32.956Z,60.88
2023-03-02T19:45:36.232Z,60.80
2023-03-02T19:47:39.002Z,61.04
2023-03-02T19:49:41.602Z,60.87
2023-03-02T19:51:45.509Z,60.95
2023-03-02T19:53:48.114Z,61.04
2023-03-02T19:55:51.440Z,60.94
2023-03-02T19:58:01.014Z,60.91
2023-03-02T20:00:03.930Z,60.86
2023-03-02T20:02:06.546Z,61.42
2023-03-02T20:04:09.305Z,61.23
2023-03-02T20:06:11.901Z,61.56
2023-03-02T20:08:16.839Z,61.65
2023-03-02T20:10:31.117Z,61.61
2023-03-02T20:12:34.019Z,61.42
2023-03-02T20:14:38.520Z,61.77
2023-03-02T20:16:41.320Z,61.46
2023-03-02T20:18:45.538Z,61.83
2023-03-02T20:20:48.572Z,62.10
2023-03-02T20:22:51.270Z,61.85
2023-03-02T20:24:55.194Z,61.89
2023-03-02T20:26:57.846Z,62.15
2023-03-02T20:29:03.633Z,62.08
2023-03-02T20:31:11.920Z,62.08
2023-03-02T20:33:16.069Z,62.16
2023-03-02T20:35:18.870Z,61.86
2023-03-02T20:37:22.559Z,61.95
2023-03-02T20:39:28.382Z,61.63
2023-03-02T20:41:32.727Z,61.68
2023-03-02T20:43:35.394Z,61.55
2023-03-02T20:45:38.116Z,61.65
2023-03-02T20:47:40.898Z,61.88
2023-03-02T20:49:43.578Z,62.05
2023-03-02T20:51:52.718Z,62.07
2023-03-02T20:53:55.580Z,62.24
2023-03-02T20:55:58.262Z,62.33
2023-03-02T20:58:05.326Z,62.71
2023-03-02T21:00:11.566Z,62.48
2023-03-02T21:02:14.918Z,62.49
2023-03-02T21:04:17.877Z,62.80
2023-03-02T21:06:20.591Z,62.48
2023-03-02T21:08:23.222Z,62.80
2023-03-02T21:10:29.398Z,62.36
2023-03-02T21:12:33.139Z,62.19
2023-03-02T21:14:37.196Z,61.99
2023-03-02T21:16:40.045Z,62.10
2023-03-02T21:18:42.655Z,62.33
2023-03-02T21:20:45.355Z,62.73
2023-03-02T21:22:48.096Z,63.22
2023-03-02T21:24:52.759Z,62.84
2023-03-02T21:26:55.804Z,62.90
2023-03-02T21:28:58.412Z,63.27
2023-03-02T21:31:02.387Z,63.11
2023-03-02T21:33:05.150Z,63.06
2023-03-02T21:35:08.080Z,63.00
2023-03-02T21:37:10.691Z,63.27
2023-03-02T21:39:14.009Z,62.85
2023-03-02T21:41:17.267Z,62.55
2023-03-02T21:43:20.144Z,62.73
2023-03-02T21:45:23.034Z,62.86
2023-03-02T21:47:26.931Z,63.07
2023-03-02T21:49:29.540Z,63.26
2023-03-02T21:51:32.592Z,63.08
2023-03-02T21:53:35.332Z,63.14
2023-03-02T21:55:38.171Z,63.29
2023-03-02T21:57:41.173Z,63.44
2023-03-02T21:59:44.004Z,63.76
2023-03-02T22:01:46.610Z,63.50
2023-03-02T22:03:50.967Z,63.28
2023-03-02T22:05:53.657Z,63.12
2023-03-02T22:07:56.268Z,62.57
2023-03-02T22:09:58.997Z,62.51
2023-03-02T22:12:01.558Z,62.32
2023-03-02T22:14:12.173Z,62.31
2023-03-02T22:16:16.719Z,62.76
2023-03-02T22:18:22.311Z,63.50
2023-03-02T22:20:26.420Z,63.13
2023-03-02T22:22:30.848Z,63.57
2023-03-02T22:24:34.813Z,63.83
2023-03-02T22:26:40.110Z,63.53
2023-03-02T22:28:42.768Z,62.72
2023-03-02T22:30:45.633Z,63.36
2023-03-02T22:32:48.821Z,63.20
2023-03-02T22:34:53.369Z,63.49
2023-03-02T22:37:07.387Z,63.65
2023-03-02T22:39:16.439Z,63.98
2023-03-02T22:41:20.704Z,63.85
2023-03-02T22:43:26.357Z,64.06
2023-03-02T22:45:29.984Z,63.99
2023-03-02T22:47:33.176Z,63.66
2023-03-02T22:49:35.737Z,64.26
2023-03-02T22:51:38.318Z,64.40
2023-03-02T22:53:47.269Z,64.16
2023-03-02T22:55:49.907Z,64.51
2023-03-02T22:57:52.484Z,64.15
2023-03-02T23:00:21.212Z,64.06
2023-03-02T23:02:26.138Z,64.00
2023-03-02T23:04:32.511Z,63.90
2023-03-02T23:06:42.352Z,63.88
2023-03-02T23:08:46.324Z,63.88
2023-03-02T23:10:49.600Z,63.34
2023-03-02T23:12:52.975Z,64.07
2023-03-02T23:14:57.210Z,63.52
2023-03-02T23:17:01.819Z,63.63
2023-03-02T23:19:05.543Z,63.63
2023-03-02T23:21:16.187Z,63.49
2023-03-02T23:23:18.857Z,63.26
2023-03-02T23:25:22.747Z,63.13
2023-03-02T23:27:25.848Z,63.24
2023-03-02T23:29:28.430Z,63.72
2023-03-02T23:31:31.367Z,63.54
2023-03-02T23:33:34.861Z,63.72
2023-03-02T23:35:37.483Z,63.85
2023-03-02T23:37:40.674Z,63.85
2023-03-02T23:39:45.919Z,63.66
2023-03-02T23:41:50.049Z,63.83
2023-03-02T23:43:52.695Z,63.45
2023-03-02T23:45:56.096Z,63.66
2023-03-02T23:47:59.077Z,63.48
2023-03-02T23:50:01.659Z,63.75
2023-03-02T23:52:05.591Z,63.88
2023-03-02T23:54:08.170Z,63.68
2023-03-02T23:56:11.328Z,63.62
2023-03-02T23:58:15.373Z,63.63
